Detmold, Texas
Current Conditions -  °F | °C
As of 2:43 AM on Sunday 21 Dec 2014 (Local Time) from KGRK Reporting Station
Overcast Overcast  
Wind Chill: 44°   Ceiling: 1700
Heat Index: 46°   Visibility: 10mi
Dew Point: 46°   Wind: 5mph
Humidity: 100%   Direction: 150°SSE
Pressure: 30.13"   Gusts: NA
Location:  30.5951°N, 97.1399°W
Report Text: KGRK 210843Z AUTO 15004KT 10SM OVC017 08/08 A3013 RMK AO2
Loading
Personal Weather Stations






























Interactive Weather Map New forecast layout! Learn more

10-Day Weather Forecast

Advertisements
Track Severe Weather on mobile